Impacts TAF Board
For situational awareness. Not to be used for flight planning purposes.
IDs:

KDEN - Denver Intl, CO, US

Issued at 1732 UTC 19 Jan 2019
Updated at 2018 UTC 19 Jan 2019
Potential Impact None Slight Moderate High
Time<<20/09Z 20/10Z 20/11Z 20/12Z 20/13Z 20/14Z 20/15Z 20/16Z 20/17Z 20/18Z 20/19Z 20/20Z 20/21Z>>
Type PRVL PRVL PRVL PRVL PRVL PRVL PRVL PRVL PRVL PRVL PRVL PRVL PRVL
VIS >6 >6 >6 >6 >6 >6 >6 >6 >6 >6 >6 >6 >6
CIG -- -- -- -- -- -- -- -- -- -- 200 200 200
Cover FEW FEW FEW FEW FEW FEW FEW FEW FEW FEW BKN BKN BKN
FltCat VFR VFR VFR VFR VFR VFR VFR VFR VFR VFR VFR VFR VFR
WX -- -- -- -- -- -- -- -- -- -- -- -- --
WDir 210 210 210 210 210 210 210 210 210 210 120 120 120
WSpd 9 9 9 9 9 9 9 9 9 9 8 8 8
WGst -- -- -- -- -- -- -- -- -- -- -- -- --
Raw TAF
KDEN 191732Z 1918/2024 20008KT P6SM FEW090
  FM192100 27012KT P6SM SCT120 BKN200
  FM200100 21009KT P6SM FEW120
  FM201900 12008KT P6SM BKN200


METAR Board
Radar Display
Forecast Discussion
For situational awareness. Not to be used for flight planning purposes.